Time;durP1;ratioP1;P1;durP2;ratioP2;P2;SDS_P1;SDS_P2;PMS_P1;PMS_P2;Temp;Humidity;BMP_temperature;BMP_pressure;BME280_temperature;BME280_humidity;BME280_pressure;Samples;Min_cycle;Max_cycle;Signal;HPM_P1;HPM_P2
2022/07/15 00:00:10;;;;;;;2.15;1.55;;;19.30;82.50;;;;;;5052509;28;20032;-49
2022/07/15 00:02:37;;;;;;;2.78;1.88;;;19.10;81.40;;;;;;5052860;28;20021;-49
2022/07/15 00:05:05;;;;;;;3.70;1.67;;;19.10;80.50;;;;;;5052879;28;20021;-54
2022/07/15 00:07:30;;;;;;;7.88;1.80;;;19.00;80.50;;;;;;5052268;28;20059;-49
2022/07/15 00:10:14;;;;;;;6.47;1.45;;;18.90;82.10;;;;;;5052881;28;20249;-49
2022/07/15 00:12:44;;;;;;;3.88;1.90;;;19.00;79.30;;;;;;5052627;28;20503;-52
2022/07/15 00:15:10;;;;;;;5.50;1.88;;;18.90;81.80;;;;;;5051303;28;20025;-52
2022/07/15 00:17:36;;;;;;;2.28;1.52;;;18.80;81.50;;;;;;5051674;28;20056;-49
2022/07/15 00:20:02;;;;;;;5.47;2.17;;;18.70;81.70;;;;;;5052602;28;20110;-51
2022/07/15 00:22:28;;;;;;;8.90;2.45;;;18.70;83.10;;;;;;5052395;28;20025;-54
2022/07/15 00:24:54;;;;;;;2.72;1.90;;;18.70;82.50;;;;;;5052517;28;20027;-54
2022/07/15 00:27:19;;;;;;;3.10;1.70;;;18.70;83.40;;;;;;5051610;28;20029;-52
2022/07/15 00:29:45;;;;;;;5.55;1.35;;;18.60;84.10;;;;;;5052223;28;20403;-52
2022/07/15 00:32:11;;;;;;;9.18;1.70;;;18.60;83.50;;;;;;5050742;28;20115;-53
2022/07/15 00:34:36;;;;;;;3.58;1.83;;;18.60;82.60;;;;;;5052033;28;20060;-52
2022/07/15 00:37:02;;;;;;;3.55;1.20;;;18.60;82.50;;;;;;5050034;28;20029;-56
2022/07/15 00:39:28;;;;;;;3.78;1.60;;;18.60;83.00;;;;;;5052102;28;20037;-49
2022/07/15 00:41:54;;;;;;;3.65;1.70;;;18.50;82.90;;;;;;5051965;28;20021;-51
2022/07/15 00:44:19;;;;;;;2.78;1.50;;;18.40;83.20;;;;;;5052096;28;20542;-54
2022/07/15 00:46:45;;;;;;;5.45;1.73;;;18.40;83.60;;;;;;5050046;28;20108;-55
2022/07/15 00:49:11;;;;;;;5.72;1.70;;;18.40;83.50;;;;;;5051695;28;20113;-55
2022/07/15 00:51:41;;;;;;;3.10;1.80;;;18.30;83.80;;;;;;5052046;28;20461;-50
2022/07/15 00:54:10;;;;;;;5.20;1.33;;;18.30;84.40;;;;;;5051758;28;20131;-54
2022/07/15 00:56:39;;;;;;;3.33;1.50;;;18.30;84.90;;;;;;5051601;28;20025;-53
2022/07/15 00:59:06;;;;;;;2.08;1.40;;;18.20;84.70;;;;;;5051127;28;20024;-56
2022/07/15 01:01:34;;;;;;;10.13;1.63;;;18.20;84.90;;;;;;5051576;28;20090;-51
2022/07/15 01:04:04;;;;;;;5.30;1.73;;;18.20;86.20;;;;;;5051719;28;20497;-54
2022/07/15 01:06:30;;;;;;;4.93;1.77;;;18.20;85.40;;;;;;5051863;28;20477;-50
2022/07/15 01:08:56;;;;;;;2.78;1.48;;;18.10;85.70;;;;;;5050773;28;20048;-54
2022/07/15 01:11:21;;;;;;;1.40;1.30;;;18.10;86.10;;;;;;5050944;28;20017;-56
2022/07/15 01:13:47;;;;;;;7.65;1.90;;;18.00;86.20;;;;;;5051489;28;20033;-49
2022/07/15 01:16:12;;;;;;;4.68;1.75;;;18.10;86.60;;;;;;5051510;28;20033;-53
2022/07/15 01:18:38;;;;;;;6.15;1.70;;;18.00;86.20;;;;;;5050740;28;20025;-56
2022/07/15 01:21:04;;;;;;;3.03;1.30;;;18.00;86.70;;;;;;5051537;28;20032;-51
2022/07/15 01:23:29;;;;;;;5.43;2.65;;;18.00;86.50;;;;;;5051481;28;20021;-49
2022/07/15 01:25:55;;;;;;;3.20;1.85;;;18.00;86.20;;;;;;5051608;28;20537;-53
2022/07/15 01:28:21;;;;;;;5.65;1.70;;;18.00;86.30;;;;;;5050675;28;20033;-51
2022/07/15 01:30:47;;;;;;;4.88;2.17;;;17.90;87.00;;;;;;5051205;28;20493;-49
2022/07/15 01:33:13;;;;;;;3.63;1.50;;;17.90;87.10;;;;;;5051289;28;20025;-55
2022/07/15 01:35:39;;;;;;;3.95;2.70;;;17.90;86.90;;;;;;5051341;28;20520;-52
2022/07/15 01:38:05;;;;;;;1.75;1.58;;;17.90;87.30;;;;;;5049156;28;20048;-51
2022/07/15 01:40:30;;;;;;;2.53;1.58;;;18.00;86.70;;;;;;5051367;28;20024;-50
2022/07/15 01:42:55;;;;;;;2.85;1.60;;;18.00;87.70;;;;;;5051187;28;20033;-51
2022/07/15 01:45:21;;;;;;;3.65;1.77;;;17.90;87.10;;;;;;5051188;28;20067;-54
2022/07/15 01:47:48;;;;;;;2.97;1.50;;;17.90;87.40;;;;;;5050356;28;20079;-50
2022/07/15 01:50:15;;;;;;;2.45;1.58;;;18.00;88.00;;;;;;5051205;28;20066;-55
2022/07/15 01:52:40;;;;;;;3.13;1.45;;;18.00;87.50;;;;;;5051166;28;20405;-53
2022/07/15 01:55:08;;;;;;;3.83;1.85;;;18.00;87.60;;;;;;5051145;28;20037;-55
2022/07/15 01:57:34;;;;;;;1.77;1.30;;;17.90;87.40;;;;;;5050047;28;20033;-52
2022/07/15 02:00:00;;;;;;;4.97;1.77;;;17.80;87.60;;;;;;5050990;28;20488;-49
2022/07/15 02:02:26;;;;;;;3.75;1.42;;;17.80;87.80;;;;;;5051131;28;20536;-49
2022/07/15 02:04:52;;;;;;;3.25;1.42;;;17.80;87.70;;;;;;5051226;28;20031;-49
2022/07/15 02:07:17;;;;;;;3.67;1.50;;;17.70;88.30;;;;;;5050239;28;20025;-49
2022/07/15 02:09:43;;;;;;;4.88;1.83;;;17.70;88.90;;;;;;5051053;28;20017;-47
2022/07/15 02:12:09;;;;;;;4.32;2.13;;;17.70;88.90;;;;;;5050765;28;20037;-50
2022/07/15 02:14:35;;;;;;;2.08;1.90;;;17.60;89.10;;;;;;5051367;28;20503;-51
2022/07/15 02:17:01;;;;;;;5.65;1.70;;;17.60;89.40;;;;;;5050151;28;20507;-54
2022/07/15 02:19:27;;;;;;;6.45;2.75;;;17.60;89.60;;;;;;5049924;28;20452;-50
2022/07/15 02:21:53;;;;;;;4.38;2.00;;;17.60;89.60;;;;;;5050895;28;20030;-50
2022/07/15 02:24:21;;;;;;;4.03;1.45;;;17.60;89.60;;;;;;5054657;28;20392;-50
2022/07/15 02:26:48;;;;;;;4.35;1.58;;;17.60;90.10;;;;;;5054257;28;20108;-51
2022/07/15 02:29:14;;;;;;;2.88;1.70;;;17.50;90.10;;;;;;5054598;28;20078;-57
2022/07/15 02:31:40;;;;;;;3.35;1.65;;;17.50;90.10;;;;;;5056913;28;20477;-51
2022/07/15 02:34:05;;;;;;;3.80;1.83;;;17.50;90.40;;;;;;5054551;28;20032;-52
2022/07/15 02:36:31;;;;;;;2.85;1.80;;;17.40;90.40;;;;;;5052994;28;20029;-53
2022/07/15 02:38:56;;;;;;;4.53;1.77;;;17.30;90.60;;;;;;5053564;28;20032;-51
2022/07/15 02:41:23;;;;;;;4.15;2.90;;;17.30;90.80;;;;;;5054297;28;20028;-55
2022/07/15 02:43:49;;;;;;;2.85;1.83;;;17.20;90.80;;;;;;5054421;28;20024;-53
2022/07/15 02:46:14;;;;;;;3.30;2.28;;;17.20;90.90;;;;;;5054411;28;20021;-52
2022/07/15 02:48:40;;;;;;;3.60;1.92;;;17.20;91.10;;;;;;5053843;28;20064;-47
2022/07/15 02:51:06;;;;;;;5.35;1.88;;;17.10;91.10;;;;;;5054245;28;20036;-50
2022/07/15 02:53:32;;;;;;;2.63;1.75;;;17.10;91.20;;;;;;5054132;28;20069;-52
2022/07/15 02:55:58;;;;;;;6.32;1.85;;;17.10;91.40;;;;;;5053953;28;20055;-49
2022/07/15 02:58:24;;;;;;;5.55;2.28;;;17.00;91.40;;;;;;5053025;28;20029;-54
2022/07/15 03:00:50;;;;;;;5.40;1.83;;;17.00;91.10;;;;;;5054080;28;20021;-48
2022/07/15 03:03:16;;;;;;;1.90;1.80;;;16.90;91.00;;;;;;5053895;28;20111;-49
2022/07/15 03:05:41;;;;;;;4.22;1.80;;;16.80;91.20;;;;;;5052534;28;20382;-49
2022/07/15 03:08:07;;;;;;;5.38;1.83;;;16.80;91.20;;;;;;5053604;28;20025;-49
2022/07/15 03:10:32;;;;;;;6.80;2.00;;;16.80;91.20;;;;;;5053923;28;20397;-49
2022/07/15 03:12:58;;;;;;;4.22;1.80;;;16.70;91.10;;;;;;5053700;28;20033;-52
2022/07/15 03:15:23;;;;;;;4.30;2.22;;;16.70;91.30;;;;;;5053950;28;20057;-53
2022/07/15 03:17:49;;;;;;;10.15;2.35;;;16.70;91.30;;;;;;5053056;28;20036;-50
2022/07/15 03:20:14;;;;;;;3.80;2.03;;;16.70;91.20;;;;;;5054015;28;20033;-49
2022/07/15 03:22:40;;;;;;;3.83;2.22;;;16.70;91.40;;;;;;5052373;28;20412;-54
2022/07/15 03:25:06;;;;;;;4.47;1.85;;;16.60;91.50;;;;;;5053452;28;20028;-49
2022/07/15 03:27:31;;;;;;;3.90;2.03;;;16.70;91.80;;;;;;5052620;28;20033;-47
2022/07/15 03:29:57;;;;;;;3.92;2.20;;;16.60;91.80;;;;;;5052053;28;20040;-53
2022/07/15 03:32:22;;;;;;;7.50;1.98;;;16.60;91.90;;;;;;5053504;28;20112;-54
2022/07/15 03:34:51;;;;;;;7.28;1.95;;;16.60;92.40;;;;;;5052458;28;20408;-54
2022/07/15 03:37:16;;;;;;;2.05;1.95;;;16.60;92.10;;;;;;5052347;28;20029;-50
2022/07/15 03:39:42;;;;;;;6.90;2.22;;;16.50;92.20;;;;;;5053193;28;20104;-54
2022/07/15 03:42:08;;;;;;;8.05;2.20;;;16.50;92.30;;;;;;5053071;28;20025;-51
2022/07/15 03:44:34;;;;;;;5.07;1.80;;;16.50;92.80;;;;;;5053159;28;20572;-53
2022/07/15 03:46:59;;;;;;;2.50;2.10;;;16.50;92.50;;;;;;5052234;28;20024;-54
2022/07/15 03:49:25;;;;;;;7.70;2.70;;;16.50;92.30;;;;;;5053136;28;20033;-54
2022/07/15 03:51:50;;;;;;;4.47;2.08;;;16.50;92.30;;;;;;5052872;28;20115;-48
2022/07/15 03:54:16;;;;;;;5.57;1.90;;;16.50;92.30;;;;;;5052953;28;20521;-53
2022/07/15 03:56:41;;;;;;;2.97;1.77;;;16.50;92.30;;;;;;5052638;28;20025;-53
2022/07/15 03:59:07;;;;;;;2.63;1.92;;;16.60;92.50;;;;;;5052314;28;20029;-52
2022/07/15 04:01:33;;;;;;;3.95;1.80;;;16.60;92.40;;;;;;5052818;28;20025;-50
2022/07/15 04:03:59;;;;;;;3.60;2.45;;;16.60;92.60;;;;;;5051697;28;20396;-49
2022/07/15 04:06:24;;;;;;;6.07;2.42;;;16.70;92.50;;;;;;5052949;28;20416;-52
2022/07/15 04:08:51;;;;;;;8.63;3.40;;;16.70;92.20;;;;;;5051871;28;20032;-52
2022/07/15 04:11:16;;;;;;;2.80;1.67;;;16.70;92.40;;;;;;5052563;28;20044;-51
2022/07/15 04:13:42;;;;;;;3.92;1.77;;;16.70;92.50;;;;;;5052595;28;20029;-55
2022/07/15 04:16:09;;;;;;;4.60;2.08;;;16.70;92.30;;;;;;5051092;28;20021;-51
2022/07/15 04:18:34;;;;;;;6.45;1.98;;;16.80;92.50;;;;;;5051623;28;20021;-52
2022/07/15 04:21:01;;;;;;;2.65;1.60;;;16.70;92.20;;;;;;5052429;28;20021;-53
2022/07/15 04:23:27;;;;;;;2.50;1.95;;;16.80;92.30;;;;;;5051017;28;20029;-53
2022/07/15 04:25:52;;;;;;;3.83;1.80;;;16.80;92.10;;;;;;5050973;28;20087;-53
2022/07/15 04:28:21;;;;;;;3.97;2.10;;;16.90;92.20;;;;;;5051424;28;20029;-51
2022/07/15 04:30:47;;;;;;;2.50;1.67;;;17.00;92.20;;;;;;5052675;28;20687;-48
2022/07/15 04:33:13;;;;;;;3.47;1.70;;;17.20;92.80;;;;;;5052153;28;20459;-52
2022/07/15 04:35:38;;;;;;;3.65;1.83;;;17.30;92.00;;;;;;5052136;28;20029;-49
2022/07/15 04:38:05;;;;;;;3.72;1.65;;;17.40;91.20;;;;;;5051164;28;20063;-50
2022/07/15 04:40:34;;;;;;;3.00;1.70;;;17.30;91.00;;;;;;5052279;28;20081;-50
2022/07/15 04:42:59;;;;;;;4.47;1.85;;;17.30;91.20;;;;;;5052087;28;20515;-51
2022/07/15 04:45:28;;;;;;;2.92;2.05;;;17.20;91.40;;;;;;5050550;28;20029;-49
2022/07/15 04:47:54;;;;;;;5.40;1.85;;;17.20;92.10;;;;;;5051117;28;20032;-52
2022/07/15 04:53:05;;;;;;;3.20;1.55;;;17.20;91.80;;;;;;5051800;28;20036;-50
2022/07/15 04:55:31;;;;;;;3.42;1.90;;;17.20;91.80;;;;;;5052101;28;20029;-49
2022/07/15 04:57:57;;;;;;;3.47;1.73;;;17.40;91.80;;;;;;5076549;22;20055;-51
2022/07/15 05:00:22;;;;;;;5.20;1.83;;;17.70;91.50;;;;;;5053608;28;20020;-51
2022/07/15 05:02:48;;;;;;;2.45;1.45;;;18.20;90.70;;;;;;5071536;28;20378;-46
2022/07/15 05:05:14;;;;;;;7.38;2.17;;;18.80;89.50;;;;;;5071562;28;20028;-47
2022/07/15 05:07:40;;;;;;;3.38;2.08;;;19.50;86.90;;;;;;5071039;28;20365;-50
2022/07/15 05:10:07;;;;;;;2.88;1.73;;;20.10;84.70;;;;;;5071604;28;20028;-48
2022/07/15 05:12:33;;;;;;;3.30;1.48;;;20.70;83.00;;;;;;5071607;28;20039;-50
2022/07/15 05:14:58;;;;;;;5.45;1.75;;;21.40;81.00;;;;;;5071560;28;20408;-50
2022/07/15 05:17:25;;;;;;;3.45;1.70;;;21.50;80.30;;;;;;5070742;28;20039;-47
2022/07/15 05:19:52;;;;;;;7.15;1.40;;;22.00;79.20;;;;;;5053395;28;20024;-45
2022/07/15 05:22:17;;;;;;;3.15;1.52;;;22.50;77.70;;;;;;5071420;28;20123;-51
2022/07/15 05:24:44;;;;;;;2.38;1.50;;;22.70;76.80;;;;;;5071502;28;20532;-48
2022/07/15 05:27:09;;;;;;;3.22;1.70;;;22.90;76.70;;;;;;5070586;28;20504;-46
2022/07/15 05:29:35;;;;;;;1.75;1.40;;;22.90;76.60;;;;;;5071443;28;20025;-47
2022/07/15 05:32:00;;;;;;;2.42;1.20;;;22.50;76.70;;;;;;5071254;28;20025;-48
2022/07/15 05:34:25;;;;;;;3.78;1.48;;;22.20;77.80;;;;;;5071259;28;20531;-47
2022/07/15 05:36:51;;;;;;;1.42;1.20;;;21.70;78.80;;;;;;5070720;28;20100;-46
2022/07/15 05:39:16;;;;;;;4.65;1.75;;;21.30;80.60;;;;;;5071508;28;20047;-47
2022/07/15 05:41:42;;;;;;;3.75;1.40;;;21.00;81.60;;;;;;5071310;28;20036;-50
2022/07/15 05:44:07;;;;;;;2.15;1.30;;;21.30;81.30;;;;;;5071160;28;20470;-48
2022/07/15 05:46:33;;;;;;;2.30;1.88;;;21.60;80.20;;;;;;5071439;28;20031;-47
2022/07/15 05:48:58;;;;;;;4.70;1.60;;;21.50;80.00;;;;;;5070817;28;20029;-50
2022/07/15 05:51:24;;;;;;;5.63;1.15;;;21.50;80.00;;;;;;5071126;28;20029;-48
2022/07/15 05:53:49;;;;;;;7.97;1.20;;;21.60;79.30;;;;;;5071082;28;20050;-46
2022/07/15 05:56:15;;;;;;;5.10;1.60;;;21.50;79.30;;;;;;5071128;28;20039;-48
2022/07/15 05:58:41;;;;;;;4.95;1.83;;;21.80;79.80;;;;;;5072996;28;20024;-53
2022/07/15 06:01:06;;;;;;;4.03;1.38;;;22.80;77.30;;;;;;5075096;28;20108;-48
2022/07/15 06:03:32;;;;;;;5.20;1.67;;;23.60;75.50;;;;;;5056895;28;20464;-46
2022/07/15 06:05:58;;;;;;;4.22;1.08;;;24.30;73.00;;;;;;5075079;28;20059;-50
2022/07/15 06:08:23;;;;;;;1.63;1.30;;;24.40;72.60;;;;;;5074155;28;20028;-51
2022/07/15 06:10:49;;;;;;;4.50;1.55;;;24.60;71.80;;;;;;5074817;28;20124;-47
2022/07/15 06:13:15;;;;;;;4.20;1.75;;;25.20;71.30;;;;;;5075848;28;20040;-47
2022/07/15 06:15:40;;;;;;;7.40;2.95;;;25.90;70.00;;;;;;5074880;28;20023;-47
2022/07/15 06:18:06;;;;;;;4.00;1.55;;;26.40;69.00;;;;;;5073991;28;20028;-49
2022/07/15 06:20:32;;;;;;;4.70;1.50;;;26.60;68.30;;;;;;5074690;28;20396;-49
2022/07/15 06:22:58;;;;;;;2.58;1.25;;;25.90;69.00;;;;;;5074584;28;20028;-49
2022/07/15 06:25:24;;;;;;;4.00;1.52;;;25.50;69.00;;;;;;5074600;28;20024;-46
2022/07/15 06:27:49;;;;;;;1.73;1.40;;;24.50;71.30;;;;;;5073757;28;20040;-47
2022/07/15 06:30:15;;;;;;;7.95;1.75;;;23.60;73.00;;;;;;5074861;28;20166;-51
2022/07/15 06:32:40;;;;;;;2.22;1.67;;;22.80;75.10;;;;;;5074723;28;20480;-50
2022/07/15 06:35:07;;;;;;;4.25;1.40;;;22.50;76.80;;;;;;5056326;28;20021;-50
2022/07/15 06:37:32;;;;;;;6.18;1.45;;;22.20;76.60;;;;;;5073421;28;20097;-49
2022/07/15 06:39:58;;;;;;;12.13;1.35;;;22.10;76.20;;;;;;5056342;28;20025;-50
2022/07/15 06:42:24;;;;;;;8.98;1.77;;;21.60;77.60;;;;;;5074145;28;20024;-47
2022/07/15 06:44:49;;;;;;;4.00;1.45;;;21.00;79.20;;;;;;5074100;28;20020;-49
2022/07/15 06:47:15;;;;;;;2.80;1.38;;;20.90;80.50;;;;;;5073404;28;20032;-45
2022/07/15 06:49:41;;;;;;;5.13;1.70;;;21.00;79.50;;;;;;5074215;28;20017;-46
2022/07/15 06:52:06;;;;;;;5.18;1.45;;;21.50;78.40;;;;;;5074011;28;20037;-46
2022/07/15 06:54:32;;;;;;;2.28;1.48;;;21.30;79.10;;;;;;5074245;28;20457;-49
2022/07/15 06:56:59;;;;;;;3.95;1.20;;;21.00;80.00;;;;;;5073104;28;20036;-52
2022/07/15 06:59:25;;;;;;;2.42;1.27;;;20.60;80.60;;;;;;5074236;28;20099;-45
2022/07/15 07:01:52;;;;;;;6.00;1.58;;;20.20;82.00;;;;;;5073972;28;20502;-44
2022/07/15 07:04:17;;;;;;;4.00;1.45;;;21.10;81.00;;;;;;5074046;28;20023;-47
2022/07/15 07:06:43;;;;;;;6.80;1.48;;;21.90;79.00;;;;;;5073712;28;20029;-49
2022/07/15 07:09:09;;;;;;;5.65;1.27;;;22.50;77.80;;;;;;5071906;28;20532;-47
2022/07/15 07:11:35;;;;;;;6.10;1.15;;;23.10;76.80;;;;;;5072558;28;20032;-46
2022/07/15 07:14:00;;;;;;;6.57;1.48;;;23.40;75.40;;;;;;5063730;28;20017;-55
2022/07/15 07:16:26;;;;;;;2.80;1.13;;;24.30;74.90;;;;;;5053733;28;20075;-49
2022/07/15 07:18:52;;;;;;;5.43;1.10;;;25.30;71.90;;;;;;5047005;28;20028;-47
2022/07/15 07:21:19;;;;;;;3.03;1.20;;;25.80;70.20;;;;;;5073527;28;20364;-47
2022/07/15 07:23:45;;;;;;;4.78;0.93;;;25.80;70.20;;;;;;5073259;28;20111;-54
2022/07/15 07:26:12;;;;;;;2.83;1.15;;;25.00;71.20;;;;;;5071865;28;20535;-53
2022/07/15 07:28:41;;;;;;;2.42;0.98;;;24.00;73.50;;;;;;5072786;28;20039;-48
2022/07/15 07:31:08;;;;;;;3.75;1.45;;;23.80;74.50;;;;;;5073125;28;20020;-45
2022/07/15 07:33:34;;;;;;;3.97;1.23;;;23.50;75.20;;;;;;5072703;28;20392;-46
2022/07/15 07:35:59;;;;;;;6.55;1.30;;;23.20;75.90;;;;;;5072791;28;20032;-50
2022/07/15 07:38:25;;;;;;;7.97;1.00;;;23.20;76.50;;;;;;5072363;28;20033;-48
2022/07/15 07:40:50;;;;;;;4.68;1.50;;;23.60;75.30;;;;;;5073100;28;20112;-46
2022/07/15 07:43:18;;;;;;;4.32;1.23;;;23.90;74.60;;;;;;5073144;28;20024;-46
2022/07/15 07:45:44;;;;;;;5.90;1.30;;;24.10;74.10;;;;;;5073157;28;20039;-48
2022/07/15 07:48:10;;;;;;;5.82;1.50;;;24.70;73.00;;;;;;5071517;28;20020;-46
2022/07/15 07:50:36;;;;;;;5.85;1.20;;;25.10;72.00;;;;;;5072897;28;20403;-50
2022/07/15 07:53:01;;;;;;;4.32;1.33;;;24.90;72.50;;;;;;5072863;28;20453;-51
2022/07/15 07:55:27;;;;;;;3.63;1.20;;;25.40;72.10;;;;;;5072867;28;20024;-52
2022/07/15 07:57:55;;;;;;;1.88;0.93;;;25.60;70.50;;;;;;5070723;28;20071;-52
2022/07/15 08:00:22;;;;;;;4.03;1.48;;;25.60;70.50;;;;;;5072732;28;20074;-49
2022/07/15 08:02:48;;;;;;;5.90;1.17;;;25.70;69.20;;;;;;5072720;28;20020;-46
2022/07/15 08:05:14;;;;;;;11.18;1.88;;;25.80;69.90;;;;;;5072621;28;20020;-49
2022/07/15 08:07:41;;;;;;;5.05;1.40;;;26.20;68.90;;;;;;5071910;28;20032;-50
2022/07/15 08:10:08;;;;;;;4.97;1.33;;;25.10;70.40;;;;;;5068109;28;20017;-52
2022/07/15 08:12:34;;;;;;;4.70;1.20;;;24.20;73.20;;;;;;5063901;28;20021;-51
2022/07/15 08:15:00;;;;;;;6.78;1.30;;;24.50;72.30;;;;;;5052697;28;20036;-48
2022/07/15 08:17:25;;;;;;;9.20;1.75;;;24.60;72.50;;;;;;5065983;28;20044;-46
2022/07/15 08:19:51;;;;;;;4.20;1.30;;;24.70;72.10;;;;;;5071554;28;20056;-51
2022/07/15 08:22:16;;;;;;;5.70;1.58;;;25.00;71.30;;;;;;5070871;28;20028;-54
2022/07/15 08:24:42;;;;;;;3.40;1.45;;;25.30;70.30;;;;;;5071988;28;20032;-46
2022/07/15 08:27:08;;;;;;;3.08;1.65;;;25.70;69.70;;;;;;5071005;28;20032;-46
2022/07/15 08:29:34;;;;;;;5.38;1.80;;;25.60;68.90;;;;;;5071849;28;20033;-53
2022/07/15 08:32:00;;;;;;;5.13;1.63;;;24.90;71.00;;;;;;5072063;28;20059;-51
2022/07/15 08:34:25;;;;;;;10.73;2.10;;;24.40;71.10;;;;;;5072245;28;20068;-47
2022/07/15 08:36:50;;;;;;;4.18;1.80;;;24.10;71.80;;;;;;5071605;28;20032;-48
2022/07/15 08:39:16;;;;;;;5.72;1.63;;;23.50;72.90;;;;;;5071800;28;20039;-47
2022/07/15 08:41:42;;;;;;;3.70;1.67;;;23.10;73.90;;;;;;5065544;28;20451;-49
2022/07/15 08:44:08;;;;;;;2.67;1.13;;;23.20;74.00;;;;;;5052278;28;20028;-45
2022/07/15 08:46:35;;;;;;;6.07;1.40;;;23.40;74.40;;;;;;5060802;28;20020;-47
2022/07/15 08:49:11;;;;;;;3.92;1.70;;;23.70;74.10;;;;;;5071214;28;20040;-50
2022/07/15 08:51:41;;;;;;;3.38;1.30;;;24.50;73.00;;;;;;5066508;28;20104;-47
2022/07/15 08:54:06;;;;;;;3.47;1.60;;;24.30;73.30;;;;;;5051542;28;20108;-46
2022/07/15 08:56:37;;;;;;;4.80;1.52;;;24.20;73.30;;;;;;5062939;28;20103;-46
2022/07/15 08:59:04;;;;;;;3.13;1.20;;;24.00;73.40;;;;;;5070924;28;20036;-46
2022/07/15 09:01:32;;;;;;;5.00;1.38;;;23.60;75.00;;;;;;5071566;28;20045;-44
2022/07/15 09:03:58;;;;;;;4.07;1.38;;;23.20;75.70;;;;;;5070860;28;20025;-49
2022/07/15 09:06:35;;;;;;;2.13;1.20;;;22.60;76.00;;;;;;5071045;28;20503;-47
2022/07/15 09:09:21;;;;;;;3.20;1.90;;;22.30;77.50;;;;;;5056658;28;20366;-45
2022/07/15 09:11:57;;;;;;;;;;;22.10;77.80;;;;;;5051880;28;20450;-47
2022/07/15 09:14:28;;;;;;;2.17;1.52;;;22.70;77.20;;;;;;5051604;28;19912;-46
2022/07/15 09:17:11;;;;;;;3.90;1.58;;;22.80;76.60;;;;;;5050700;28;20370;-49
2022/07/15 09:19:57;;;;;;;3.28;1.52;;;22.80;76.40;;;;;;5051370;28;20108;-48
2022/07/15 09:22:24;;;;;;;5.07;1.52;;;22.80;76.50;;;;;;5063622;28;20048;-48
2022/07/15 09:25:07;;;;;;;8.00;3.47;;;23.10;75.90;;;;;;5071253;28;20107;-50
2022/07/15 09:27:38;;;;;;;8.55;1.95;;;23.30;74.50;;;;;;5070824;28;20020;-54
2022/07/15 09:33:39;;;;;;;5.72;1.50;;;23.00;75.70;;;;;;5050410;28;20028;-50
2022/07/15 09:36:12;;;;;;;2.13;1.92;;;22.80;75.00;;;;;;5051574;28;20427;-51
2022/07/15 09:38:56;;;;;;;3.28;2.05;;;22.70;74.80;;;;;;5050541;28;20091;-46
2022/07/15 09:41:36;;;;;;;4.47;1.98;;;23.10;75.70;;;;;;5050660;28;20480;-47
2022/07/15 09:44:08;;;;;;;1.80;1.70;;;23.70;74.70;;;;;;5056941;28;20020;-45
2022/07/15 09:46:47;;;;;;;5.85;2.10;;;24.20;72.30;;;;;;5066552;28;20023;-51
2022/07/15 09:49:15;;;;;;;2.70;2.33;;;24.70;71.60;;;;;;5069277;28;20542;-50
2022/07/15 09:51:51;;;;;;;6.32;2.60;;;24.80;69.40;;;;;;5071227;28;20025;-47
2022/07/15 09:54:17;;;;;;;3.97;2.08;;;24.50;70.30;;;;;;5069476;28;20036;-50
2022/07/15 09:56:45;;;;;;;5.35;2.40;;;24.60;70.80;;;;;;5071053;28;20047;-48
2022/07/15 09:59:11;;;;;;;7.13;3.85;;;24.90;70.70;;;;;;5070461;28;20040;-49
2022/07/15 10:01:36;;;;;;;6.32;2.20;;;25.20;69.60;;;;;;5070464;28;20029;-45
2022/07/15 10:04:04;;;;;;;7.28;2.35;;;25.30;70.10;;;;;;5070891;28;20024;-47
2022/07/15 10:06:35;;;;;;;3.70;2.55;;;25.40;70.50;;;;;;5070438;28;20477;-47
2022/07/15 10:09:01;;;;;;;4.40;2.38;;;25.60;70.30;;;;;;5070870;28;20037;-50
2022/07/15 10:11:28;;;;;;;8.38;2.35;;;25.80;69.50;;;;;;5071097;28;20035;-52
2022/07/15 10:14:11;;;;;;;5.60;2.22;;;25.90;68.30;;;;;;5071595;28;20024;-48
2022/07/15 10:17:03;;;;;;;3.08;1.80;;;25.40;67.70;;;;;;5070770;28;20020;-48
2022/07/15 10:19:59;;;;;;;6.60;2.45;;;24.50;70.50;;;;;;5070879;28;20025;-49
2022/07/15 10:23:03;;;;;;;4.70;2.45;;;24.10;71.10;;;;;;5070658;28;20039;-51
2022/07/15 10:25:40;;;;;;;3.03;2.35;;;23.80;71.30;;;;;;5023600;28;20512;-51
2022/07/15 10:28:13;;;;;;;5.32;2.50;;;23.70;71.70;;;;;;5070215;28;20029;-51
2022/07/15 10:30:40;;;;;;;4.07;2.83;;;23.30;71.90;;;;;;5052760;28;20023;-49
2022/07/15 10:33:05;;;;;;;5.43;3.40;;;23.10;73.00;;;;;;5070515;28;20109;-51
2022/07/15 10:35:38;;;;;;;4.10;2.72;;;22.90;72.90;;;;;;5070756;28;20021;-50
2022/07/15 10:38:20;;;;;;;6.60;2.80;;;22.90;72.70;;;;;;5070860;28;20028;-51
2022/07/15 10:41:10;;;;;;;5.85;2.42;;;23.00;72.70;;;;;;5070680;28;20100;-51
2022/07/15 10:43:42;;;;;;;6.25;2.50;;;23.50;72.50;;;;;;5071702;28;20032;-45
2022/07/15 10:46:26;;;;;;;5.18;2.78;;;23.60;71.60;;;;;;5073985;28;20016;-49
2022/07/15 10:48:56;;;;;;;4.78;2.47;;;23.70;71.70;;;;;;5073230;28;20035;-46
2022/07/15 10:51:36;;;;;;;3.17;2.42;;;23.90;71.30;;;;;;5074006;28;20027;-48
2022/07/15 10:54:18;;;;;;;4.80;2.25;;;24.10;71.60;;;;;;5073681;28;20029;-49
2022/07/15 10:56:46;;;;;;;2.70;2.28;;;24.20;70.20;;;;;;5073951;28;20059;-45
2022/07/15 10:59:15;;;;;;;5.82;2.80;;;24.00;70.00;;;;;;5073647;28;20102;-50
2022/07/15 11:01:46;;;;;;;4.90;2.53;;;23.80;70.00;;;;;;5074171;28;20107;-47
2022/07/15 11:04:20;;;;;;;5.70;2.55;;;23.70;70.70;;;;;;5073972;28;20078;-49
2022/07/15 11:07:14;;;;;;;7.15;2.53;;;23.80;70.50;;;;;;5073483;28;20024;-45
2022/07/15 11:09:47;;;;;;;3.00;2.22;;;23.90;70.80;;;;;;5072988;28;20051;-45
2022/07/15 11:12:13;;;;;;;4.25;2.15;;;24.00;70.50;;;;;;5073819;28;20488;-46
2022/07/15 11:14:58;;;;;;;6.25;2.40;;;23.90;70.30;;;;;;5073756;28;20437;-50
2022/07/15 11:17:28;;;;;;;5.75;2.38;;;23.90;70.10;;;;;;5072361;28;20025;-51
2022/07/15 11:19:56;;;;;;;3.42;2.30;;;23.80;70.40;;;;;;5073820;28;20074;-49
2022/07/15 11:22:23;;;;;;;4.70;2.08;;;23.90;69.10;;;;;;5073657;28;20690;-45
2022/07/15 11:24:49;;;;;;;5.80;2.60;;;24.00;69.30;;;;;;5073536;28;20028;-46
2022/07/15 11:27:14;;;;;;;6.90;1.90;;;24.10;69.70;;;;;;5072908;28;20042;-49
2022/07/15 11:29:41;;;;;;;2.95;1.90;;;24.00;69.30;;;;;;5073384;28;20024;-49
2022/07/15 11:32:07;;;;;;;4.25;2.20;;;24.00;69.60;;;;;;5073000;28;20318;-48
2022/07/15 11:34:42;;;;;;;4.30;1.90;;;24.10;69.20;;;;;;5071677;28;20036;-45
2022/07/15 11:37:10;;;;;;;8.70;5.95;;;24.00;69.30;;;;;;5072708;28;20250;-51
2022/07/15 11:39:36;;;;;;;6.05;3.70;;;23.80;70.10;;;;;;5073321;28;20400;-47
2022/07/15 11:44:48;;;;;;;6.97;2.27;;;23.80;69.60;;;;;;5073441;28;20444;-44
2022/07/15 11:47:14;;;;;;;2.35;2.03;;;23.70;70.00;;;;;;5072192;28;20056;-48
2022/07/15 11:49:43;;;;;;;4.45;2.05;;;23.70;70.00;;;;;;5072960;28;20063;-45
2022/07/15 11:52:11;;;;;;;2.38;2.17;;;23.80;71.20;;;;;;5073062;28;20020;-50
2022/07/15 11:54:39;;;;;;;4.70;2.30;;;23.80;68.90;;;;;;5073046;28;20028;-49
2022/07/15 11:57:10;;;;;;;3.00;2.13;;;24.00;68.10;;;;;;5071364;28;20036;-51
2022/07/15 11:59:36;;;;;;;3.72;2.30;;;24.00;68.80;;;;;;5073974;28;20119;-50
2022/07/15 12:02:10;;;;;;;5.40;2.20;;;24.10;68.00;;;;;;5072733;28;20024;-50
2022/07/15 12:04:37;;;;;;;6.55;2.17;;;24.00;67.90;;;;;;5072860;28;20025;-46
2022/07/15 12:07:03;;;;;;;6.10;2.00;;;23.90;67.00;;;;;;5072166;28;20032;-52
2022/07/15 12:09:42;;;;;;;6.45;2.15;;;23.90;67.80;;;;;;5072901;28;20028;-51
2022/07/15 12:12:08;;;;;;;6.47;2.13;;;23.60;68.50;;;;;;5072946;28;20052;-50
2022/07/15 12:14:34;;;;;;;4.63;2.05;;;23.60;68.80;;;;;;5072951;28;20020;-47
2022/07/15 12:17:00;;;;;;;2.30;1.90;;;23.70;68.30;;;;;;5071680;28;20035;-49
2022/07/15 12:19:27;;;;;;;7.13;2.00;;;23.70;68.90;;;;;;5072591;28;20029;-49
2022/07/15 12:21:59;;;;;;;4.65;2.58;;;23.80;68.80;;;;;;5072636;28;20074;-52
2022/07/15 12:24:26;;;;;;;2.45;2.15;;;23.80;68.20;;;;;;5072505;28;20024;-51
2022/07/15 12:26:54;;;;;;;3.83;2.03;;;23.80;68.70;;;;;;5071213;28;20046;-49
2022/07/15 12:29:22;;;;;;;3.42;2.17;;;23.80;68.80;;;;;;5072363;28;20024;-51
2022/07/15 12:31:55;;;;;;;5.43;2.05;;;23.80;68.90;;;;;;5072481;28;20024;-51
2022/07/15 12:34:22;;;;;;;4.80;2.15;;;24.00;69.50;;;;;;5071465;28;20423;-52
2022/07/15 12:36:58;;;;;;;4.82;2.40;;;24.00;68.80;;;;;;5071477;28;20385;-52
2022/07/15 12:39:25;;;;;;;5.00;2.40;;;24.00;68.00;;;;;;5072159;28;20139;-51
2022/07/15 12:42:17;;;;;;;2.50;1.88;;;23.90;68.70;;;;;;5072009;28;20021;-46
2022/07/15 12:44:43;;;;;;;3.97;2.00;;;23.50;69.00;;;;;;5067532;28;20382;-47
2022/07/15 12:47:08;;;;;;;4.75;1.95;;;23.30;69.70;;;;;;5071174;28;20082;-49
2022/07/15 12:49:44;;;;;;;7.60;2.47;;;23.10;68.70;;;;;;5071906;28;20024;-51
2022/07/15 12:52:21;;;;;;;3.80;2.35;;;22.80;69.80;;;;;;5071720;28;20021;-51
2022/07/15 12:54:48;;;;;;;26.27;18.63;;;22.70;70.00;;;;;;5071708;28;20028;-54
2022/07/15 12:57:25;;;;;;;10.45;7.45;;;22.60;69.30;;;;;;5070696;28;20480;-51
2022/07/15 12:59:53;;;;;;;3.38;2.00;;;22.60;71.20;;;;;;5053590;28;20043;-52